Crestview Terrace, Illinois
Current Conditions -  °F | °C
As of 12:15 PM on Friday 28 Nov 2014 (Local Time) from KFWC Reporting Station
Clear Clear  
Wind Chill: 28°   Ceiling: Unl
Heat Index: 37°   Visibility: 10mi
Dew Point: 31°   Wind: 14mph
Humidity: 79%   Direction: 160°SSE
Pressure: 30.2"   Gusts: 18mph
Location:  38.3669°N, 88.3516°W
Report Text: KFWC 281815Z AUTO 16012G16KT 10SM CLR 03/00 A3020 RMK AO1 T00281005
Loading
Personal Weather Stations






























Interactive Weather Map New forecast layout! Learn more

10-Day Weather Forecast

Advertisements
Track Severe Weather on mobile